Time;durP1;ratioP1;P1;durP2;ratioP2;P2;SDS_P1;SDS_P2;PMS_P1;PMS_P2;Temp;Humidity;BMP_temperature;BMP_pressure;BME280_temperature;BME280_humidity;BME280_pressure;Samples;Min_cycle;Max_cycle;Signal;HPM_P1;HPM_P2
2023/10/12 00:01:59;;;;;;;16.60;9.20;;;;;;;9.67;100.00;96930.47;4987991;28;20398;-68
2023/10/12 00:04:35;;;;;;;16.00;9.07;;;;;;;9.81;100.00;96936.28;4992655;28;20412;-67
2023/10/12 00:07:10;;;;;;;16.65;8.98;;;;;;;9.80;100.00;96933.94;5003817;28;20053;-68
2023/10/12 00:09:35;;;;;;;15.85;8.23;;;;;;;9.80;100.00;96936.66;4994046;28;20126;-68
2023/10/12 00:12:07;;;;;;;16.88;8.25;;;;;;;9.81;100.00;96936.28;4996053;28;20136;-67
2023/10/12 00:14:34;;;;;;;16.10;8.30;;;;;;;9.83;100.00;96931.28;4996538;28;20042;-67
2023/10/12 00:17:00;;;;;;;14.18;7.78;;;;;;;9.70;100.00;96927.03;5000148;28;20053;-67
2023/10/12 00:19:25;;;;;;;17.58;8.60;;;;;;;9.56;100.00;96917.38;4999955;28;20030;-67
2023/10/12 00:22:11;;;;;;;14.82;7.88;;;;;;;9.61;100.00;96926.44;4997977;28;20050;-68
2023/10/12 00:24:40;;;;;;;17.30;8.23;;;;;;;9.67;100.00;96919.53;4995853;28;20034;-66
2023/10/12 00:27:09;;;;;;;17.10;8.77;;;;;;;9.74;100.00;96919.72;4998665;28;20045;-66
2023/10/12 00:29:35;;;;;;;14.00;7.55;;;;;;;9.69;100.00;96920.00;5010124;28;20035;-66
2023/10/12 00:32:02;;;;;;;14.02;7.25;;;;;;;9.65;100.00;96916.38;4989777;28;20092;-66
2023/10/12 00:34:28;;;;;;;24.33;8.27;;;;;;;9.55;100.00;96904.06;4993386;28;20129;-67
2023/10/12 00:36:53;;;;;;;12.52;7.10;;;;;;;9.63;100.00;96915.94;4991635;28;20128;-67
2023/10/12 00:39:34;;;;;;;17.50;7.38;;;;;;;9.73;100.00;96915.41;4988164;28;20046;-67
2023/10/12 00:41:59;;;;;;;17.80;7.90;;;;;;;9.81;100.00;96917.13;4999003;28;20057;-67
2023/10/12 00:44:26;;;;;;;14.75;7.70;;;;;;;9.83;100.00;96908.59;4979953;28;20033;-67
2023/10/12 00:49:26;;;;;;;16.23;7.05;;;;;;;9.84;100.00;96919.16;4988938;28;20054;-66
2023/10/12 00:52:07;;;;;;;13.68;7.60;;;;;;;9.83;100.00;96914.88;4992345;28;20074;-68
2023/10/12 00:57:05;;;;;;;16.67;8.65;;;;;;;9.72;100.00;96911.06;4998983;28;20042;-68
2023/10/12 00:59:33;;;;;;;16.73;7.72;;;;;;;9.55;100.00;96923.97;4989968;28;20081;-68
2023/10/12 01:02:00;;;;;;;14.07;8.05;;;;;;;9.30;100.00;96917.91;4998656;28;20096;-67
2023/10/12 01:04:27;;;;;;;17.90;7.82;;;;;;;9.21;100.00;96906.34;4986949;28;20046;-68
2023/10/12 01:06:59;;;;;;;17.05;7.07;;;;;;;9.34;100.00;96910.56;4989704;28;20117;-68
2023/10/12 01:09:39;;;;;;;12.43;6.65;;;;;;;9.44;100.00;96903.78;4980823;28;20388;-68
2023/10/12 01:12:11;;;;;;;13.35;7.22;;;;;;;9.34;100.00;96896.13;4984531;28;20100;-69
2023/10/12 01:14:42;;;;;;;17.60;7.32;;;;;;;9.32;100.00;96898.41;4985962;28;20065;-68
2023/10/12 01:17:08;;;;;;;16.73;8.40;;;;;;;9.24;100.00;96894.72;4987435;28;20045;-69
2023/10/12 01:19:44;;;;;;;17.30;8.00;;;;;;;9.27;100.00;96898.69;4994543;28;20354;-68
2023/10/12 01:22:13;;;;;;;17.88;8.40;;;;;;;9.14;100.00;96881.59;4990366;28;20043;-68
2023/10/12 01:24:59;;;;;;;19.47;8.70;;;;;;;9.10;100.00;96884.22;4991926;28;20100;-68
2023/10/12 01:27:25;;;;;;;14.57;7.40;;;;;;;9.14;100.00;96876.13;5001376;28;20057;-67
2023/10/12 01:30:13;;;;;;;16.13;7.65;;;;;;;9.27;100.00;96880.34;4982931;28;20047;-68
2023/10/12 01:32:39;;;;;;;17.70;7.88;;;;;;;9.26;100.00;96875.25;4975429;28;20034;-68
2023/10/12 01:35:05;;;;;;;13.18;7.07;;;;;;;9.42;100.00;96877.94;4985856;28;20049;-67
2023/10/12 01:37:41;;;;;;;15.30;7.65;;;;;;;9.40;100.00;96875.59;4981335;28;20146;-68
2023/10/12 01:40:15;;;;;;;14.18;6.68;;;;;;;9.35;100.00;96882.09;4978590;28;20080;-69
2023/10/12 01:45:17;;;;;;;22.05;7.50;;;;;;;9.34;100.00;96877.78;4980735;28;20049;-66
2023/10/12 01:47:44;;;;;;;17.48;8.43;;;;;;;9.35;100.00;96881.31;4985439;28;20046;-66
2023/10/12 01:50:10;;;;;;;15.10;7.97;;;;;;;9.34;100.00;96885.19;4986255;28;20076;-66
2023/10/12 01:52:35;;;;;;;15.65;8.10;;;;;;;9.34;100.00;96879.72;4990907;28;20156;-67
2023/10/12 01:55:13;;;;;;;14.77;7.55;;;;;;;9.37;100.00;96885.28;4990775;28;20034;-67
2023/10/12 01:57:46;;;;;;;18.67;7.50;;;;;;;9.36;100.00;96883.72;4988333;28;20635;-68
2023/10/12 02:00:15;;;;;;;15.68;7.80;;;;;;;9.29;100.00;96877.25;4977400;28;20065;-68
2023/10/12 02:02:49;;;;;;;11.90;7.40;;;;;;;9.14;100.00;96885.09;4995613;28;20603;-66
2023/10/12 02:05:23;;;;;;;14.40;7.30;;;;;;;9.16;100.00;96884.75;4980729;28;20444;-69
2023/10/12 02:07:52;;;;;;;13.57;7.15;;;;;;;9.16;100.00;96877.38;4988940;28;20050;-67
2023/10/12 02:10:18;;;;;;;13.75;7.55;;;;;;;9.17;100.00;96881.66;4988429;28;20154;-66
2023/10/12 02:12:45;;;;;;;18.55;8.05;;;;;;;9.22;100.00;96885.28;5002346;28;20049;-68
2023/10/12 02:15:15;;;;;;;17.48;8.35;;;;;;;9.20;100.00;96880.19;4997358;28;20046;-66
2023/10/12 02:17:42;;;;;;;13.55;7.45;;;;;;;9.10;100.00;96880.72;5013571;28;20037;-67
2023/10/12 02:20:11;;;;;;;13.60;7.35;;;;;;;9.12;100.00;96889.34;4984467;28;20121;-66
2023/10/12 02:22:37;;;;;;;17.50;8.07;;;;;;;8.99;100.00;96881.22;4995245;28;20520;-67
2023/10/12 02:25:26;;;;;;;16.27;7.68;;;;;;;9.01;100.00;96878.16;4997683;28;20041;-67
2023/10/12 02:27:55;;;;;;;23.83;7.88;;;;;;;9.02;100.00;96874.28;4988150;28;20081;-66
2023/10/12 02:30:27;;;;;;;13.90;7.75;;;;;;;8.95;100.00;96885.81;4995680;28;20120;-67
2023/10/12 02:33:00;;;;;;;16.70;7.45;;;;;;;9.09;100.00;96881.84;4993911;28;20628;-67
2023/10/12 02:35:36;;;;;;;17.38;8.27;;;;;;;9.06;100.00;96882.56;4988834;28;20042;-68
2023/10/12 02:38:07;;;;;;;22.60;8.13;;;;;;;8.99;100.00;96877.72;4993216;28;20042;-68
2023/10/12 02:40:33;;;;;;;13.10;7.50;;;;;;;8.99;100.00;96880.44;4990151;28;20062;-66
2023/10/12 02:42:59;;;;;;;19.70;7.68;;;;;;;9.01;100.00;96880.88;4992315;28;20437;-67
2023/10/12 02:45:27;;;;;;;18.67;8.27;;;;;;;9.06;100.00;96871.63;4981353;28;20038;-67
2023/10/12 02:47:53;;;;;;;21.05;8.32;;;;;;;9.06;100.00;96877.88;4983847;28;20047;-67
2023/10/12 02:50:27;;;;;;;22.65;7.43;;;;;;;9.10;100.00;96875.25;4990064;28;20114;-66
2023/10/12 02:52:52;;;;;;;16.88;7.68;;;;;;;9.07;100.00;96879.47;4990994;28;20410;-67
2023/10/12 02:57:53;;;;;;;16.48;7.20;;;;;;;9.04;100.00;96876.63;4990883;28;20149;-67
2023/10/12 03:00:22;;;;;;;16.77;7.22;;;;;;;9.03;100.00;96864.94;5007290;28;20046;-67
2023/10/12 03:02:51;;;;;;;13.40;7.40;;;;;;;9.01;100.00;96875.41;5005829;28;20041;-68
2023/10/12 03:05:31;;;;;;;15.75;7.30;;;;;;;9.00;100.00;96865.63;4992342;28;20125;-68
2023/10/12 03:08:05;;;;;;;18.60;7.90;;;;;;;8.96;100.00;96870.22;5005328;28;20125;-67
2023/10/12 03:10:30;;;;;;;13.70;7.68;;;;;;;8.91;100.00;96871.28;4997501;28;20119;-68
2023/10/12 03:13:04;;;;;;;11.07;7.25;;;;;;;8.91;100.00;96871.28;4997028;28;20512;-67
2023/10/12 03:15:44;;;;;;;21.08;7.60;;;;;;;8.88;100.00;96876.66;5004110;28;20401;-68
2023/10/12 03:18:13;;;;;;;15.10;7.10;;;;;;;8.83;100.00;96874.97;4998769;28;20038;-68
2023/10/12 03:20:38;;;;;;;16.57;7.40;;;;;;;8.71;100.00;96869.56;5000810;28;20060;-68
2023/10/12 03:23:16;;;;;;;21.30;7.65;;;;;;;8.75;100.00;96876.72;4981060;28;20038;-66
2023/10/12 03:25:51;;;;;;;22.08;7.95;;;;;;;8.69;100.00;96878.09;4997176;28;20043;-67
2023/10/12 03:31:15;;;;;;;13.20;6.55;;;;;;;8.88;100.00;96879.38;4983270;28;20089;-68
2023/10/12 03:33:46;;;;;;;12.98;7.07;;;;;;;8.87;100.00;96873.09;4991674;28;20042;-67
2023/10/12 03:36:22;;;;;;;16.42;6.95;;;;;;;8.86;100.00;96878.91;4989365;28;20456;-68
2023/10/12 03:39:06;;;;;;;17.70;7.88;;;;;;;8.76;100.00;96874.78;4996136;28;20045;-67
2023/10/12 03:44:19;;;;;;;15.10;7.13;;;;;;;8.70;100.00;96873.47;5008903;28;20501;-67
2023/10/12 03:46:47;;;;;;;14.50;7.30;;;;;;;8.72;100.00;96865.69;4984843;28;20054;-67
2023/10/12 03:52:13;;;;;;;16.40;7.72;;;;;;;8.82;100.00;96867.91;4991156;28;20088;-68
2023/10/12 03:54:45;;;;;;;13.60;7.72;;;;;;;8.84;100.00;96859.34;4976604;28;20219;-67
2023/10/12 03:57:19;;;;;;;13.98;7.13;;;;;;;8.77;100.00;96860.00;4985244;28;20045;-68
2023/10/12 04:00:25;;;;;;;14.90;7.25;;;;;;;8.70;100.00;96854.34;4990423;28;20041;-69
2023/10/12 04:02:41;;;;;;;14.85;7.28;;;;;;;8.70;100.00;96866.06;4988358;28;20078;-68
2023/10/12 04:13:55;;;;;;;11.48;6.68;;;;;;;8.61;100.00;96840.84;4987727;28;20077;-69
2023/10/12 04:18:32;;;;;;;11.95;6.40;;;;;;;8.57;100.00;96846.22;4982074;28;20042;-69
2023/10/12 04:20:58;;;;;;;13.25;7.05;;;;;;;8.68;100.00;96848.41;4987089;28;20101;-68
2023/10/12 04:27:07;;;;;;;15.07;6.88;;;;;;;8.73;100.00;96851.69;4986379;28;20413;-67
2023/10/12 04:28:53;;;;;;;18.70;7.55;;;;;;;8.75;100.00;96848.59;4994141;28;20041;-68
2023/10/12 04:31:34;;;;;;;17.20;7.20;;;;;;;8.75;100.00;96854.88;4979909;28;20046;-67
2023/10/12 04:36:52;;;;;;;20.58;7.00;;;;;;;8.75;100.00;96863.06;4992523;28;20117;-68
2023/10/12 04:39:27;;;;;;;19.85;7.65;;;;;;;8.79;100.00;96858.47;4981720;28;20038;-68
2023/10/12 04:42:01;;;;;;;18.42;7.43;;;;;;;8.84;100.00;96859.34;5003091;28;20038;-67
2023/10/12 04:47:03;;;;;;;18.05;8.02;;;;;;;8.89;100.00;96870.03;4996616;28;20051;-67
2023/10/12 04:57:33;;;;;;;13.73;7.85;;;;;;;9.05;100.00;96875.50;4987296;28;20053;-67
2023/10/12 05:07:54;;;;;;;16.05;7.65;;;;;;;8.74;100.00;96877.84;4983784;28;20184;-68
2023/10/12 05:10:26;;;;;;;16.00;8.18;;;;;;;8.72;100.00;96874.69;4987394;28;20084;-68
2023/10/12 05:12:53;;;;;;;16.60;7.60;;;;;;;8.66;100.00;96875.28;4987025;28;20512;-67
2023/10/12 05:15:20;;;;;;;17.42;7.53;;;;;;;8.72;100.00;96880.13;4981500;28;20046;-67
2023/10/12 05:17:46;;;;;;;13.73;7.00;;;;;;;8.82;100.00;96883.50;4995800;28;20034;-68
2023/10/12 05:20:12;;;;;;;79.50;46.28;;;;;;;8.84;100.00;96871.09;4982740;28;20046;-69
2023/10/12 05:22:37;;;;;;;17.50;7.57;;;;;;;8.93;100.00;96877.19;5003465;28;20358;-69
2023/10/12 05:25:04;;;;;;;14.57;7.70;;;;;;;8.92;100.00;96880.25;4998358;28;20485;-71
2023/10/12 05:27:38;;;;;;;18.23;7.78;;;;;;;8.94;100.00;96892.41;4983991;28;20051;-66
2023/10/12 05:30:16;;;;;;;17.50;7.93;;;;;;;8.84;100.00;96881.22;4979095;28;20042;-71
2023/10/12 05:32:48;;;;;;;16.50;7.90;;;;;;;8.77;100.00;96890.81;4981268;28;20030;-67
2023/10/12 05:35:16;;;;;;;20.98;8.60;;;;;;;8.64;100.00;96899.41;4981817;28;20042;-67
2023/10/12 05:37:49;;;;;;;19.38;8.13;;;;;;;8.65;100.00;96890.09;5000052;28;20042;-67
2023/10/12 05:40:20;;;;;;;20.55;9.23;;;;;;;8.50;100.00;96884.25;4996783;28;20048;-69
2023/10/12 05:42:50;;;;;;;20.33;7.78;;;;;;;8.55;100.00;96888.63;5005351;28;20612;-68
2023/10/12 05:45:22;;;;;;;18.75;8.80;;;;;;;8.57;100.00;96891.81;5000609;28;20107;-68
2023/10/12 05:47:51;;;;;;;20.30;8.20;;;;;;;8.61;100.00;96892.72;4993102;28;20038;-66
2023/10/12 05:50:23;;;;;;;;;;;;;;;8.88;100.00;96904.75;5002859;28;20042;-68
2023/10/12 05:52:51;;;;;;;22.85;9.30;;;;;;;9.02;100.00;96900.78;5006760;28;19919;-68
2023/10/12 05:55:21;;;;;;;18.95;9.43;;;;;;;9.02;100.00;96914.44;5002048;28;20432;-67
2023/10/12 05:57:49;;;;;;;14.10;8.38;;;;;;;9.18;100.00;96909.78;5006544;28;20045;-69
2023/10/12 06:00:35;;;;;;;26.85;8.85;;;;;;;9.26;100.00;96921.72;5015246;28;20077;-68
2023/10/12 06:03:01;;;;;;;18.30;8.43;;;;;;;9.33;100.00;96910.94;5018544;28;20451;-69
2023/10/12 06:05:27;;;;;;;20.38;8.00;;;;;;;9.36;100.00;96913.78;4995887;28;20049;-69
2023/10/12 06:08:00;;;;;;;17.60;8.82;;;;;;;9.36;100.00;96924.72;4988075;28;20053;-67
2023/10/12 06:10:27;;;;;;;21.38;9.20;;;;;;;9.28;100.00;96913.94;4998484;28;20058;-69
2023/10/12 06:12:53;;;;;;;39.45;10.57;;;;;;;9.31;100.00;96921.41;5005198;28;20108;-68
2023/10/12 06:15:24;;;;;;;19.95;9.07;;;;;;;9.14;100.00;96914.38;4998283;28;20064;-69
2023/10/12 06:17:51;;;;;;;19.45;8.32;;;;;;;9.22;100.00;96924.34;5005397;28;20403;-68
2023/10/12 06:20:30;;;;;;;16.98;9.45;;;;;;;9.06;100.00;96924.34;4984940;28;20045;-67
2023/10/12 06:22:55;;;;;;;28.77;11.32;;;;;;;9.11;100.00;96920.53;4999755;28;20038;-68
2023/10/12 06:25:23;;;;;;;25.70;10.13;;;;;;;8.86;100.00;96933.53;4997775;28;20507;-68
2023/10/12 06:27:49;;;;;;;23.50;9.45;;;;;;;9.05;100.00;96933.66;5010139;28;20140;-69
2023/10/12 06:30:18;;;;;;;17.02;9.18;;;;;;;9.08;100.00;96938.44;5001298;28;20069;-68
2023/10/12 06:32:46;;;;;;;21.48;9.93;;;;;;;9.03;100.00;96940.63;5001722;28;20128;-69
2023/10/12 06:35:13;;;;;;;21.80;9.82;;;;;;;9.24;100.00;96948.56;5001276;28;20038;-68
2023/10/12 06:45:47;;;;;;;16.48;7.30;;;;;;;11.64;100.00;96969.25;5003339;28;20046;-67
2023/10/12 06:51:06;;;;;;;15.75;6.47;;;;;;;12.69;100.00;96966.06;4991621;28;20121;-69
2023/10/12 06:53:34;;;;;;;14.80;6.82;;;;;;;13.06;100.00;96976.34;5003389;28;20048;-71
2023/10/12 06:58:47;;;;;;;16.77;6.45;;;;;;;14.25;100.00;96983.69;5004270;28;20492;-70
2023/10/12 07:01:18;;;;;;;12.52;5.70;;;;;;;14.98;100.00;96988.41;5000223;28;20073;-70
2023/10/12 07:03:50;;;;;;;15.85;6.50;;;;;;;15.64;100.00;96974.34;4991597;28;20138;-70
2023/10/12 07:06:16;;;;;;;18.23;6.13;;;;;;;16.13;100.00;96986.59;5002340;28;20042;-71
2023/10/12 07:08:43;;;;;;;14.65;6.43;;;;;;;16.57;100.00;96990.09;5004410;28;20602;-69
2023/10/12 07:11:17;;;;;;;12.45;6.20;;;;;;;17.08;99.15;96991.50;5002276;28;20034;-70
2023/10/12 07:13:45;;;;;;;14.32;6.30;;;;;;;14.35;100.00;96980.22;5005118;28;20042;-68
2023/10/12 07:16:20;;;;;;;18.23;7.82;;;;;;;15.07;100.00;96986.88;5001744;28;20121;-71
2023/10/12 07:18:49;;;;;;;15.35;5.90;;;;;;;15.58;100.00;96992.50;5005328;28;20132;-69
2023/10/12 07:21:21;;;;;;;18.20;6.28;;;;;;;17.39;100.00;97003.63;4985174;28;20383;-68
2023/10/12 07:23:52;;;;;;;14.02;5.20;;;;;;;18.98;93.65;97011.38;4987240;28;20034;-72
2023/10/12 07:26:23;;;;;;;15.90;5.30;;;;;;;19.60;81.17;97020.47;4993127;28;20049;-66
2023/10/12 07:28:49;;;;;;;8.48;5.22;;;;;;;19.93;79.87;97031.16;4994762;28;20129;-68
2023/10/12 07:41:55;;;;;;;17.85;5.43;;;;;;;17.28;100.00;97007.63;5005387;28;20037;-67
2023/10/12 07:44:22;;;;;;;14.25;5.45;;;;;;;16.97;100.00;97004.59;4999015;28;20057;-68
2023/10/12 07:46:48;;;;;;;11.10;5.50;;;;;;;17.22;100.00;97009.25;5004439;28;20069;-68
2023/10/12 07:52:46;;;;;;;16.65;5.43;;;;;;;18.09;100.00;97013.03;5004008;28;20042;-68
2023/10/12 07:54:47;;;;;;;14.25;5.10;;;;;;;18.38;100.00;96999.69;5000049;28;20128;-67
2023/10/12 07:57:19;;;;;;;15.73;5.55;;;;;;;18.51;98.35;97005.50;5000831;28;20472;-67
2023/10/12 08:10:48;;;;;;;18.63;7.18;;;;;;;18.12;95.91;97017.78;5000976;28;20045;-67
2023/10/12 08:23:57;;;;;;;15.75;6.03;;;;;;;18.82;96.93;97031.38;5003517;28;20053;-68
2023/10/12 08:26:35;;;;;;;17.88;5.80;;;;;;;19.54;92.33;97036.06;4993027;28;20588;-69
2023/10/12 08:39:38;;;;;;;13.55;5.28;;;;;;;22.53;76.07;96994.81;5002417;28;20038;-69
2023/10/12 08:44:58;;;;;;;13.23;4.68;;;;;;;23.82;68.30;97005.09;5002682;28;20041;-68
2023/10/12 08:50:05;;;;;;;15.45;6.05;;;;;;;22.36;73.12;97012.78;4987118;28;20041;-68
2023/10/12 08:52:38;;;;;;;15.95;5.50;;;;;;;22.09;76.34;97011.03;5002125;28;20429;-68
2023/10/12 08:55:11;;;;;;;12.80;4.63;;;;;;;22.87;72.17;97021.41;5000679;28;20469;-71
2023/10/12 08:58:01;;;;;;;10.95;4.90;;;;;;;23.42;68.14;97019.47;4986150;28;20035;-69
2023/10/12 09:05:41;;;;;;;15.45;5.80;;;;;;;25.10;58.82;97023.63;4990046;28;20050;-67
2023/10/12 09:08:39;;;;;;;13.80;5.07;;;;;;;26.06;54.00;97032.41;4998139;28;20053;-68
2023/10/12 09:10:56;;;;;;;14.43;6.05;;;;;;;25.19;54.54;97025.69;5004289;28;20038;-67
2023/10/12 09:13:35;;;;;;;13.23;5.90;;;;;;;24.29;58.25;97019.59;4999026;28;20042;-69
2023/10/12 09:16:07;;;;;;;14.60;5.82;;;;;;;26.13;53.49;97032.13;5003474;28;20033;-67
2023/10/12 09:18:47;;;;;;;13.07;5.07;;;;;;;26.74;46.14;97034.47;5003462;28;20128;-68
2023/10/12 09:21:27;;;;;;;13.50;5.32;;;;;;;26.07;49.32;97027.59;5002646;28;20042;-70
2023/10/12 09:24:05;;;;;;;11.05;5.15;;;;;;;27.86;42.70;97027.44;5002576;28;20042;-68
2023/10/12 09:26:33;;;;;;;10.32;5.00;;;;;;;27.33;43.11;97030.72;5015894;28;20393;-68
2023/10/12 09:36:27;;;;;;;13.93;5.32;;;;;;;26.10;46.51;97027.44;4994467;28;20072;-68
2023/10/12 09:39:00;;;;;;;16.70;6.35;;;;;;;26.44;44.82;97022.06;5001977;28;20049;-69
2023/10/12 09:41:32;;;;;;;11.23;4.88;;;;;;;26.22;45.61;97028.56;4993714;28;20526;-68
2023/10/12 09:44:00;;;;;;;19.42;6.32;;;;;;;26.20;45.40;97022.66;5002391;28;20111;-68
2023/10/12 09:46:27;;;;;;;10.15;4.30;;;;;;;27.33;43.26;97019.47;4997280;28;20042;-68
2023/10/12 09:49:06;;;;;;;13.43;5.45;;;;;;;27.32;42.78;97029.94;5016847;28;20042;-67
2023/10/12 09:51:36;;;;;;;11.20;5.25;;;;;;;27.54;42.23;97026.91;5001720;28;20038;-68
2023/10/12 09:54:15;;;;;;;12.70;4.60;;;;;;;28.02;41.65;97021.47;4996803;28;20065;-68
2023/10/12 09:56:46;;;;;;;13.40;4.32;;;;;;;28.39;41.11;97026.09;5000602;28;20034;-69
2023/10/12 09:59:18;;;;;;;14.63;4.72;;;;;;;26.59;45.24;97025.06;4996105;28;20048;-68
2023/10/12 10:01:50;;;;;;;15.90;4.80;;;;;;;26.12;46.38;97024.19;4985144;28;20046;-67
2023/10/12 10:09:56;;;;;;;13.18;4.18;;;;;;;26.66;46.39;97024.78;4996270;28;20081;-70
2023/10/12 10:12:24;;;;;;;15.90;3.60;;;;;;;27.85;44.10;97029.47;4997306;28;20519;-69
2023/10/12 10:14:57;;;;;;;10.27;4.95;;;;;;;28.11;42.47;97031.09;4999863;28;20044;-69
2023/10/12 10:17:24;;;;;;;14.45;3.97;;;;;;;27.83;41.26;97025.56;4997620;28;20104;-68
2023/10/12 10:23:01;;;;;;;14.68;4.32;;;;;;;26.72;43.97;97025.72;5001570;28;20038;-68
2023/10/12 10:25:35;;;;;;;12.43;4.43;;;;;;;27.40;43.21;97013.50;4998835;28;20042;-69
2023/10/12 10:28:10;;;;;;;9.23;4.28;;;;;;;28.18;41.79;97011.03;5000355;28;20057;-68
2023/10/12 10:30:41;;;;;;;11.20;4.32;;;;;;;28.22;42.32;97014.47;4999351;28;20034;-69
2023/10/12 10:33:12;;;;;;;15.80;4.20;;;;;;;28.96;41.39;97009.13;4999404;28;20070;-67
2023/10/12 10:35:56;;;;;;;18.15;4.38;;;;;;;29.05;39.06;97018.78;4988337;28;20038;-69
2023/10/12 10:38:32;;;;;;;14.98;4.75;;;;;;;28.69;41.43;97004.50;5000013;28;20046;-68
2023/10/12 10:41:22;;;;;;;15.30;4.70;;;;;;;28.99;40.95;96998.91;5004580;28;20674;-68
2023/10/12 10:43:45;;;;;;;14.38;4.18;;;;;;;29.30;40.72;97000.56;5004391;28;20042;-68
2023/10/12 10:46:13;;;;;;;9.65;3.80;;;;;;;28.31;41.81;96996.75;4999593;28;20056;-68
2023/10/12 10:48:49;;;;;;;14.05;4.75;;;;;;;27.76;42.67;96990.09;5004661;28;20048;-68
2023/10/12 10:51:18;;;;;;;14.32;4.10;;;;;;;28.00;42.76;96993.00;4986922;28;20441;-67
2023/10/12 10:53:51;;;;;;;11.07;3.95;;;;;;;27.82;42.12;96995.84;4986901;28;20125;-68
2023/10/12 10:56:32;;;;;;;12.65;4.15;;;;;;;27.04;42.88;96993.38;4985328;28;20390;-67
2023/10/12 10:59:00;;;;;;;11.10;4.10;;;;;;;27.26;40.87;96987.63;4990669;28;20464;-68
2023/10/12 11:01:26;;;;;;;11.77;4.00;;;;;;;27.12;41.63;96990.25;4999730;28;20125;-69
2023/10/12 11:03:52;;;;;;;14.70;3.67;;;;;;;27.19;41.05;96984.31;5004012;28;20044;-67
2023/10/12 11:06:21;;;;;;;20.27;4.22;;;;;;;27.03;40.72;96988.25;4999911;28;20045;-68
2023/10/12 11:09:06;;;;;;;8.40;4.20;;;;;;;27.03;40.47;96983.41;5005414;28;20057;-68
2023/10/12 11:11:48;;;;;;;13.50;4.60;;;;;;;26.86;40.81;96977.31;5003527;28;20045;-70
2023/10/12 11:14:17;;;;;;;12.77;4.00;;;;;;;27.20;40.25;96975.41;5002560;28;20197;-68
2023/10/12 11:16:46;;;;;;;12.90;4.83;;;;;;;27.55;38.33;96979.88;4996834;28;20041;-67
2023/10/12 11:19:12;;;;;;;13.38;3.97;;;;;;;27.60;38.66;96974.41;5010554;28;20347;-67
2023/10/12 11:21:45;;;;;;;16.45;3.95;;;;;;;27.93;37.08;96978.47;5004499;28;20041;-68
2023/10/12 11:24:13;;;;;;;14.48;3.80;;;;;;;27.98;37.80;96966.56;4998168;28;20132;-67
2023/10/12 11:26:51;;;;;;;10.73;3.80;;;;;;;27.38;37.89;96968.22;5004465;28;20044;-68
2023/10/12 11:29:17;;;;;;;14.85;3.70;;;;;;;27.56;38.08;96964.56;5001685;28;20065;-67
2023/10/12 11:31:46;;;;;;;12.80;3.83;;;;;;;27.29;38.86;96966.19;5002367;28;20039;-68
2023/10/12 11:34:23;;;;;;;13.43;4.07;;;;;;;27.64;38.05;96958.13;4982829;28;20093;-67
2023/10/12 11:36:57;;;;;;;10.02;4.18;;;;;;;27.50;38.24;96952.41;5001518;28;20038;-67
2023/10/12 11:39:28;;;;;;;14.02;4.03;;;;;;;27.71;38.69;96951.34;5004823;28;20053;-68
2023/10/12 11:42:12;;;;;;;14.82;4.05;;;;;;;28.01;38.92;96943.88;5017373;28;20393;-68
2023/10/12 11:44:42;;;;;;;12.35;3.88;;;;;;;27.95;38.30;96945.03;4996014;28;20045;-67
2023/10/12 11:47:10;;;;;;;13.32;4.20;;;;;;;28.19;37.11;96945.81;4994773;28;20042;-67
2023/10/12 11:50:00;;;;;;;13.70;3.90;;;;;;;28.27;37.02;96943.44;4984147;28;20400;-67
2023/10/12 11:52:31;;;;;;;12.10;3.95;;;;;;;27.96;37.49;96940.94;4999517;28;20038;-67
2023/10/12 11:55:18;;;;;;;8.32;3.78;;;;;;;28.09;36.87;96930.25;4988744;28;20500;-67
2023/10/12 11:57:54;;;;;;;15.48;4.40;;;;;;;28.46;37.00;96926.38;5003706;28;20065;-68
2023/10/12 12:00:39;;;;;;;13.70;4.00;;;;;;;28.14;37.12;96928.78;4984408;28;20393;-68
2023/10/12 12:03:08;;;;;;;12.57;3.63;;;;;;;28.85;36.78;96929.22;4988263;28;20042;-68
2023/10/12 12:05:36;;;;;;;;;;;;;;;28.15;37.46;96922.69;5001003;28;20072;-67
2023/10/12 12:08:10;;;;;;;13.15;4.60;;;;;;;28.62;37.04;96917.50;5006189;28;19921;-68
2023/10/12 12:10:44;;;;;;;14.35;3.72;;;;;;;28.41;37.50;96922.19;5005014;28;20045;-67
2023/10/12 12:13:12;;;;;;;11.00;3.70;;;;;;;28.78;36.71;96922.69;4999198;28;20054;-66
2023/10/12 12:15:43;;;;;;;11.43;3.90;;;;;;;29.13;36.21;96916.38;4986709;28;20043;-68
2023/10/12 12:18:19;;;;;;;10.18;4.03;;;;;;;28.52;36.80;96916.00;4993616;28;20132;-68
2023/10/12 12:20:49;;;;;;;19.60;4.30;;;;;;;28.25;36.64;96906.50;5003298;28;20045;-68
2023/10/12 12:23:16;;;;;;;10.95;3.92;;;;;;;28.77;36.53;96909.88;4992500;28;20501;-68
2023/10/12 12:25:42;;;;;;;10.18;4.07;;;;;;;28.85;36.11;96910.25;5002211;28;20408;-69
2023/10/12 12:28:08;;;;;;;11.93;3.75;;;;;;;28.54;38.15;96905.03;4999591;28;20050;-68
2023/10/12 12:30:36;;;;;;;17.02;4.93;;;;;;;28.90;37.88;96905.97;5007936;28;20062;-69
2023/10/12 12:33:15;;;;;;;13.18;4.22;;;;;;;28.88;36.93;96903.66;5009531;28;20037;-67
2023/10/12 12:35:41;;;;;;;;;;;;;;;28.00;39.67;96890.88;4983946;28;20178;-69
2023/10/12 12:38:28;;;;;;;14.15;3.67;;;;;;;27.77;40.00;96889.59;4991738;28;19917;-69
2023/10/12 12:40:54;;;;;;;14.75;4.05;;;;;;;26.91;41.69;96879.59;4992489;28;20042;-68
2023/10/12 12:43:20;;;;;;;14.20;3.95;;;;;;;26.75;41.49;96880.72;5000956;28;20034;-69
2023/10/12 12:45:46;;;;;;;15.65;4.00;;;;;;;26.55;41.80;96878.38;4989249;28;20566;-69
2023/10/12 12:48:11;;;;;;;13.15;4.55;;;;;;;26.63;42.71;96877.63;4973779;28;20051;-69
2023/10/12 12:50:37;;;;;;;13.93;4.10;;;;;;;26.67;41.16;96883.09;4989808;28;20107;-69
2023/10/12 12:53:06;;;;;;;12.15;4.60;;;;;;;26.19;42.60;96882.75;4978358;28;20434;-69
2023/10/12 12:55:36;;;;;;;13.57;4.05;;;;;;;25.70;43.91;96879.53;4998866;28;20033;-69
2023/10/12 12:58:01;;;;;;;15.10;4.03;;;;;;;25.37;44.62;96868.84;5002346;28;20137;-68
2023/10/12 13:00:29;;;;;;;12.27;4.82;;;;;;;25.22;45.21;96859.41;4989021;28;20431;-68
2023/10/12 13:03:00;;;;;;;10.43;4.00;;;;;;;25.41;44.89;96863.09;4994178;28;20066;-69
2023/10/12 13:05:28;;;;;;;12.90;4.30;;;;;;;25.55;44.79;96867.31;4990482;28;20042;-68
2023/10/12 13:07:54;;;;;;;9.00;3.55;;;;;;;25.55;44.92;96856.91;4994675;28;20112;-69
2023/10/12 13:10:21;;;;;;;14.75;4.45;;;;;;;25.44;45.09;96866.97;5005926;28;20052;-69
2023/10/12 13:12:47;;;;;;;12.10;4.15;;;;;;;25.55;45.00;96858.91;4985142;28;20043;-68
2023/10/12 13:15:14;;;;;;;13.63;4.68;;;;;;;25.42;45.22;96861.84;4997831;28;20096;-70
2023/10/12 13:17:40;;;;;;;12.05;4.25;;;;;;;24.86;45.36;96865.63;5000298;28;20421;-69
2023/10/12 13:20:17;;;;;;;11.75;4.43;;;;;;;25.04;44.90;96870.53;4981388;28;20042;-68
2023/10/12 13:22:44;;;;;;;10.13;4.18;;;;;;;24.94;44.43;96864.88;5002122;28;20049;-69
2023/10/12 13:25:10;;;;;;;10.00;3.85;;;;;;;24.93;45.30;96865.34;4998012;28;20104;-69
2023/10/12 13:27:37;;;;;;;11.98;4.57;;;;;;;24.96;46.26;96858.84;5000376;28;20401;-68
2023/10/12 13:30:09;;;;;;;10.52;3.95;;;;;;;24.95;45.13;96860.06;4996205;28;20436;-67
2023/10/12 13:32:36;;;;;;;9.38;3.97;;;;;;;24.92;45.55;96858.97;4994301;28;20532;-69
2023/10/12 13:35:17;;;;;;;14.82;4.53;;;;;;;25.09;45.27;96858.72;5002390;28;20069;-70
2023/10/12 13:37:45;;;;;;;11.13;3.83;;;;;;;24.81;45.38;96855.78;5009544;28;20049;-70
2023/10/12 13:40:15;;;;;;;17.23;4.60;;;;;;;24.78;45.82;96862.31;4998258;28;20133;-70
2023/10/12 13:42:44;;;;;;;12.07;4.35;;;;;;;25.01;45.83;96861.00;5001139;28;20041;-70
2023/10/12 13:45:12;;;;;;;14.43;4.53;;;;;;;25.17;45.06;96858.00;4997313;28;20045;-69
2023/10/12 13:47:41;;;;;;;12.50;4.10;;;;;;;25.46;44.19;96864.50;5001539;28;20133;-68
2023/10/12 13:50:10;;;;;;;10.18;3.83;;;;;;;25.72;43.96;96865.03;4997283;28;20041;-68
2023/10/12 13:52:39;;;;;;;13.02;4.13;;;;;;;25.73;44.31;96863.78;5016132;28;20111;-68
2023/10/12 13:55:13;;;;;;;14.43;3.88;;;;;;;25.82;44.09;96851.81;4997584;28;20125;-68
2023/10/12 13:57:55;;;;;;;11.43;3.97;;;;;;;25.76;43.46;96846.03;4999135;28;20042;-68
2023/10/12 14:00:25;;;;;;;14.05;4.90;;;;;;;25.68;42.28;96844.78;4997779;28;20053;-67
2023/10/12 14:02:54;;;;;;;13.73;3.55;;;;;;;25.67;43.11;96846.78;5002820;28;20579;-71
2023/10/12 14:05:24;;;;;;;;;;;;;;;25.60;42.64;96849.13;5001699;28;20130;-72